Time;durP1;ratioP1;P1;durP2;ratioP2;P2;SDS_P1;SDS_P2;PMS_P1;PMS_P2;Temp;Humidity;BMP_temperature;BMP_pressure;BME280_temperature;BME280_humidity;BME280_pressure;Samples;Min_cycle;Max_cycle;Signal;HPM_P1;HPM_P2
2022/04/18 00:01:41;;;;;;;10.97;7.77;;;5.80;99.90;;;;;;5156260;28;20296;-50
2022/04/18 00:04:12;;;;;;;13.67;8.97;;;5.70;99.90;;;;;;5157011;28;20420;-50
2022/04/18 00:06:42;;;;;;;14.90;9.10;;;5.70;99.90;;;;;;5155951;28;20214;-48
2022/04/18 00:09:13;;;;;;;13.47;8.90;;;5.60;99.90;;;;;;5159655;28;20190;-49
2022/04/18 00:11:44;;;;;;;17.10;8.90;;;5.60;99.90;;;;;;5155484;28;20274;-48
2022/04/18 00:14:14;;;;;;;16.83;9.13;;;5.60;99.90;;;;;;5156087;28;20236;-49
2022/04/18 00:16:45;;;;;;;16.50;9.60;;;5.60;99.90;;;;;;5158537;28;20672;-50
2022/04/18 00:19:15;;;;;;;11.70;8.27;;;5.50;99.90;;;;;;5153965;28;20188;-48
2022/04/18 00:21:46;;;;;;;10.00;8.50;;;5.50;99.90;;;;;;5159773;28;20585;-50
2022/04/18 00:24:19;;;;;;;11.20;7.70;;;5.50;99.90;;;;;;5157971;28;20555;-48
2022/04/18 00:26:50;;;;;;;11.83;8.00;;;5.40;99.90;;;;;;5153265;28;20203;-48
2022/04/18 00:29:20;;;;;;;13.13;8.03;;;5.40;99.90;;;;;;5153308;28;20440;-49
2022/04/18 00:31:51;;;;;;;11.23;8.00;;;5.30;99.90;;;;;;5156201;28;20219;-49
2022/04/18 00:34:21;;;;;;;12.60;7.70;;;5.20;99.90;;;;;;5159135;28;20267;-49
2022/04/18 00:36:52;;;;;;;10.60;7.33;;;5.20;99.90;;;;;;5157214;28;20220;-48
2022/04/18 00:39:22;;;;;;;11.87;8.13;;;5.20;99.90;;;;;;5160462;28;20210;-50
2022/04/18 00:41:53;;;;;;;10.17;7.57;;;5.20;99.90;;;;;;5155805;28;20256;-49
2022/04/18 00:44:23;;;;;;;9.60;7.50;;;5.10;99.90;;;;;;5157022;28;20256;-49
2022/04/18 00:46:54;;;;;;;8.60;7.57;;;5.10;99.90;;;;;;5157165;28;20683;-49
2022/04/18 00:49:24;;;;;;;7.93;6.73;;;5.00;99.90;;;;;;5156250;28;20183;-48
2022/04/18 00:51:55;;;;;;;11.13;7.53;;;5.00;99.90;;;;;;5153399;28;20205;-49
2022/04/18 00:54:26;;;;;;;13.63;8.50;;;5.00;99.90;;;;;;5156644;28;20214;-49
2022/04/18 00:56:57;;;;;;;10.20;7.60;;;5.00;99.90;;;;;;5155473;28;20461;-48
2022/04/18 00:59:30;;;;;;;13.10;8.33;;;5.00;99.90;;;;;;5155919;28;20177;-48
2022/04/18 01:02:01;;;;;;;10.13;7.77;;;5.00;99.90;;;;;;5153457;28;20501;-48
2022/04/18 01:04:32;;;;;;;11.57;7.67;;;5.00;99.90;;;;;;5155197;28;20530;-48
2022/04/18 01:07:03;;;;;;;12.03;7.90;;;5.00;99.90;;;;;;5155954;28;20265;-47
2022/04/18 01:09:33;;;;;;;8.83;7.60;;;5.10;99.90;;;;;;5160300;28;20195;-48
2022/04/18 01:12:04;;;;;;;13.63;7.90;;;5.10;99.90;;;;;;5155799;28;20963;-48
2022/04/18 01:14:36;;;;;;;14.73;8.63;;;5.00;99.90;;;;;;5155959;28;20183;-49
2022/04/18 01:17:06;;;;;;;9.10;7.37;;;5.10;99.90;;;;;;5157778;28;20470;-49
2022/04/18 01:19:37;;;;;;;12.87;7.73;;;5.10;99.90;;;;;;5155423;28;20713;-49
2022/04/18 01:22:09;;;;;;;12.53;8.67;;;5.00;99.90;;;;;;5155343;28;20804;-50
2022/04/18 01:30:19;;;;;;;22.03;10.80;;;5.00;99.90;;;;;;5158044;28;20476;-48
2022/04/18 01:32:50;;;;;;;13.60;9.67;;;5.00;99.90;;;;;;5158308;28;20865;-49
2022/04/18 01:35:21;;;;;;;11.37;9.70;;;5.00;99.90;;;;;;5159498;28;20324;-49
2022/04/18 01:37:52;;;;;;;19.30;12.43;;;5.00;99.90;;;;;;5155277;28;20797;-51
2022/04/18 01:40:22;;;;;;;17.90;11.13;;;5.00;99.90;;;;;;5160575;28;20177;-48
2022/04/18 01:42:53;;;;;;;15.67;10.70;;;4.90;99.90;;;;;;5158331;28;20604;-46
2022/04/18 01:45:23;;;;;;;26.03;10.80;;;4.90;99.90;;;;;;5158345;28;20189;-48
2022/04/18 01:47:54;;;;;;;13.27;9.70;;;4.90;99.90;;;;;;5154763;28;20230;-48
2022/04/18 01:50:24;;;;;;;17.33;9.70;;;4.90;99.90;;;;;;5158713;28;20273;-48
2022/04/18 01:52:55;;;;;;;11.53;9.10;;;4.90;99.90;;;;;;5158061;28;20210;-47
2022/04/18 01:55:25;;;;;;;12.07;8.13;;;4.90;99.90;;;;;;5158724;28;20214;-46
2022/04/18 01:57:56;;;;;;;16.50;8.43;;;4.90;99.90;;;;;;5160660;28;20659;-46
2022/04/18 02:00:26;;;;;;;14.10;8.67;;;4.90;99.90;;;;;;5157114;28;20209;-47
2022/04/18 02:02:57;;;;;;;9.93;7.73;;;4.80;99.90;;;;;;5156893;28;20666;-49
2022/04/18 02:05:28;;;;;;;11.57;7.77;;;4.80;99.90;;;;;;5152984;28;20204;-46
2022/04/18 02:07:58;;;;;;;10.80;7.97;;;4.80;99.90;;;;;;5163400;28;20193;-45
2022/04/18 02:10:29;;;;;;;9.93;7.60;;;4.80;99.90;;;;;;5166060;28;20192;-48
2022/04/18 02:13:00;;;;;;;8.60;7.13;;;4.70;99.90;;;;;;5157701;28;20213;-47
2022/04/18 02:15:31;;;;;;;10.53;8.10;;;4.70;99.90;;;;;;5159530;28;20198;-48
2022/04/18 02:18:01;;;;;;;13.73;8.30;;;4.70;99.90;;;;;;5163232;28;20185;-46
2022/04/18 02:20:32;;;;;;;14.83;7.73;;;4.70;99.90;;;;;;5155027;28;20495;-46
2022/04/18 02:23:02;;;;;;;12.37;8.00;;;4.70;99.90;;;;;;5160750;28;20221;-48
2022/04/18 02:25:33;;;;;;;13.57;8.30;;;4.70;99.90;;;;;;5159726;28;20588;-46
2022/04/18 02:28:04;;;;;;;11.50;7.10;;;4.70;99.90;;;;;;5154216;28;20188;-46
2022/04/18 02:30:34;;;;;;;15.13;7.80;;;4.70;99.90;;;;;;5156484;28;20273;-51
2022/04/18 02:33:05;;;;;;;10.17;8.10;;;4.60;99.90;;;;;;5159665;28;20208;-47
2022/04/18 02:35:35;;;;;;;15.10;7.30;;;4.60;99.90;;;;;;5165102;28;20302;-46
2022/04/18 02:38:06;;;;;;;10.20;7.27;;;4.60;99.90;;;;;;5160511;28;20195;-45
2022/04/18 02:40:37;;;;;;;10.00;8.10;;;4.60;99.90;;;;;;5158206;28;20187;-45
2022/04/18 02:43:07;;;;;;;13.83;7.93;;;4.60;99.90;;;;;;5160564;28;20351;-52
2022/04/18 02:45:38;;;;;;;12.90;7.50;;;4.60;99.90;;;;;;5172978;28;20317;-46
2022/04/18 02:48:09;;;;;;;16.57;9.40;;;4.50;99.90;;;;;;5156769;28;20272;-47
2022/04/18 02:50:39;;;;;;;10.73;8.47;;;4.50;99.90;;;;;;5157583;28;20702;-46
2022/04/18 02:53:10;;;;;;;11.43;7.80;;;4.50;99.90;;;;;;5160525;28;20204;-46
2022/04/18 02:55:40;;;;;;;8.60;7.07;;;4.50;99.90;;;;;;5162748;28;20568;-48
2022/04/18 02:58:11;;;;;;;12.97;8.40;;;4.40;99.90;;;;;;5154414;28;20489;-47
2022/04/18 03:00:41;;;;;;;7.10;6.40;;;4.40;99.90;;;;;;5158163;28;20196;-46
2022/04/18 03:03:12;;;;;;;9.43;7.27;;;4.40;99.90;;;;;;5158618;28;20760;-47
2022/04/18 03:05:43;;;;;;;10.97;8.37;;;4.40;99.90;;;;;;5161214;28;20185;-47
2022/04/18 03:08:13;;;;;;;13.50;7.77;;;4.30;99.90;;;;;;5159722;28;20277;-47
2022/04/18 03:13:35;;;;;;;8.43;7.00;;;4.30;99.90;;;;;;5150566;28;20244;-49
2022/04/18 03:16:05;;;;;;;11.80;6.73;;;4.20;99.90;;;;;;5156285;28;20544;-46
2022/04/18 03:18:36;;;;;;;10.50;7.97;;;4.20;99.90;;;;;;5154931;28;20523;-50
2022/04/18 03:21:07;;;;;;;13.63;8.07;;;4.20;99.90;;;;;;5154335;28;20213;-46
2022/04/18 03:23:37;;;;;;;10.17;7.83;;;4.20;99.90;;;;;;5158423;28;20196;-46
2022/04/18 03:26:08;;;;;;;14.43;8.03;;;4.10;99.90;;;;;;5157207;28;20527;-47
2022/04/18 03:28:38;;;;;;;11.53;8.40;;;4.10;99.90;;;;;;5140768;28;21099;-46
2022/04/18 03:31:09;;;;;;;10.00;7.90;;;4.10;99.90;;;;;;5161187;28;20213;-47
2022/04/18 03:33:39;;;;;;;13.70;7.90;;;4.10;99.90;;;;;;5174850;28;20280;-46
2022/04/18 03:41:48;;;;;;;15.93;9.30;;;4.00;99.90;;;;;;5151073;28;20988;-48
2022/04/18 03:44:18;;;;;;;18.43;9.70;;;3.90;99.90;;;;;;5156599;28;20437;-48
2022/04/18 03:46:49;;;;;;;10.23;8.03;;;3.90;99.90;;;;;;5154347;28;20177;-46
2022/04/18 03:49:20;;;;;;;16.30;8.23;;;4.00;99.90;;;;;;5159962;28;20189;-50
2022/04/18 03:51:51;;;;;;;13.73;7.97;;;3.90;99.90;;;;;;5157403;28;20293;-48
2022/04/18 03:54:21;;;;;;;12.70;8.87;;;3.90;99.90;;;;;;5162475;28;20519;-46
2022/04/18 03:56:53;;;;;;;14.93;9.30;;;3.90;99.90;;;;;;5160198;28;20228;-47
2022/04/18 03:59:23;;;;;;;14.13;8.90;;;3.90;99.90;;;;;;5159071;28;20255;-47
2022/04/18 04:01:54;;;;;;;11.33;8.60;;;3.90;99.90;;;;;;5157755;28;20457;-48
2022/04/18 04:04:25;;;;;;;11.90;8.10;;;3.90;99.90;;;;;;5152852;28;20200;-48
2022/04/18 04:06:56;;;;;;;10.80;8.20;;;3.90;99.90;;;;;;5174069;28;20189;-50
2022/04/18 04:09:26;;;;;;;13.90;8.57;;;3.90;99.90;;;;;;5153931;28;20450;-51
2022/04/18 04:11:56;;;;;;;14.87;8.80;;;3.90;99.90;;;;;;5170101;28;20200;-47
2022/04/18 04:14:27;;;;;;;15.77;8.70;;;3.80;99.90;;;;;;5160037;28;20185;-50
2022/04/18 04:16:58;;;;;;;15.47;8.30;;;3.80;99.90;;;;;;5156732;28;20239;-46
2022/04/18 04:19:28;;;;;;;14.03;8.47;;;3.80;99.90;;;;;;5160833;28;20181;-48
2022/04/18 04:21:59;;;;;;;14.80;9.23;;;3.80;99.90;;;;;;5156980;28;20566;-51
2022/04/18 04:24:29;;;;;;;10.93;8.50;;;3.80;99.90;;;;;;5157147;28;20188;-46
2022/04/18 04:27:00;;;;;;;11.70;8.40;;;3.80;99.90;;;;;;5158738;28;20185;-44
2022/04/18 04:29:31;;;;;;;11.73;8.20;;;3.70;99.90;;;;;;5159566;28;20280;-47
2022/04/18 04:32:02;;;;;;;14.60;9.23;;;3.80;99.90;;;;;;5149972;28;20221;-48
2022/04/18 04:34:32;;;;;;;20.20;9.47;;;3.70;99.90;;;;;;5155622;28;20630;-48
2022/04/18 04:37:03;;;;;;;15.80;10.23;;;3.70;99.90;;;;;;5157431;28;20201;-46
2022/04/18 04:39:34;;;;;;;14.93;8.50;;;3.70;99.90;;;;;;5151155;28;20721;-47
2022/04/18 04:42:04;;;;;;;22.40;10.37;;;3.70;99.90;;;;;;5157400;28;20290;-46
2022/04/18 04:44:35;;;;;;;14.53;9.27;;;3.60;99.90;;;;;;5160865;28;20193;-46
2022/04/18 04:47:05;;;;;;;14.57;9.60;;;3.70;99.90;;;;;;5155458;28;20182;-47
2022/04/18 04:49:36;;;;;;;18.43;9.53;;;3.60;99.90;;;;;;5156034;28;20185;-47
2022/04/18 04:52:07;;;;;;;21.23;9.57;;;3.60;99.90;;;;;;5158253;28;20208;-48
2022/04/18 04:54:38;;;;;;;15.53;9.60;;;4.00;99.90;;;;;;5162003;28;20185;-47
2022/04/18 04:57:08;;;;;;;12.70;9.67;;;4.60;99.90;;;;;;5154397;28;20210;-46
2022/04/18 04:59:39;;;;;;;15.03;9.10;;;4.80;99.90;;;;;;5153740;28;20947;-45
2022/04/18 05:02:10;;;;;;;19.40;9.57;;;5.10;99.90;;;;;;5149543;28;20295;-45
2022/04/18 05:04:40;;;;;;;17.50;9.73;;;5.30;99.90;;;;;;5157749;28;20173;-47
2022/04/18 05:07:11;;;;;;;19.20;9.30;;;5.30;99.90;;;;;;5151589;28;20566;-46
2022/04/18 05:09:41;;;;;;;15.10;9.23;;;5.70;99.90;;;;;;5159976;28;20213;-46
2022/04/18 05:12:12;;;;;;;26.40;9.87;;;6.00;99.90;;;;;;5161695;28;20697;-46
2022/04/18 05:14:42;;;;;;;18.07;9.30;;;6.40;99.90;;;;;;5161052;28;20200;-46
2022/04/18 05:17:13;;;;;;;18.20;9.87;;;6.90;99.90;;;;;;5139701;28;20743;-47
2022/04/18 05:19:45;;;;;;;15.20;9.60;;;7.90;99.90;;;;;;5154064;28;20204;-46
2022/04/18 05:22:16;;;;;;;22.50;8.90;;;8.90;99.20;;;;;;5148621;28;20201;-47
2022/04/18 05:24:46;;;;;;;16.80;8.20;;;10.20;90.70;;;;;;5155075;28;20793;-46
2022/04/18 05:27:17;;;;;;;18.23;9.00;;;11.20;71.60;;;;;;5152535;28;20286;-46
2022/04/18 05:29:48;;;;;;;12.80;8.67;;;12.40;62.30;;;;;;5161030;28;20200;-50
2022/04/18 05:32:19;;;;;;;19.80;8.60;;;13.50;54.00;;;;;;5170510;28;20205;-47
2022/04/18 05:34:49;;;;;;;17.57;9.33;;;14.50;50.80;;;;;;5155352;28;20455;-47
2022/04/18 05:37:20;;;;;;;14.97;8.50;;;15.10;45.80;;;;;;5157970;28;20209;-47
2022/04/18 05:39:50;;;;;;;16.23;8.73;;;15.00;45.00;;;;;;5160802;28;20184;-47
2022/04/18 05:42:23;;;;;;;24.37;9.40;;;15.00;45.10;;;;;;5153362;28;20283;-46
2022/04/18 05:44:53;;;;;;;16.23;8.80;;;15.30;44.90;;;;;;5159308;28;20185;-46
2022/04/18 05:47:24;;;;;;;18.00;9.60;;;16.60;43.00;;;;;;5153970;28;20497;-48
2022/04/18 05:49:54;;;;;;;15.47;9.67;;;17.70;40.50;;;;;;5157384;28;20188;-47
2022/04/18 05:52:25;;;;;;;17.90;9.70;;;18.00;38.40;;;;;;5157017;28;20201;-48
2022/04/18 05:54:56;;;;;;;15.07;9.80;;;18.30;37.70;;;;;;5159750;28;20664;-48
2022/04/18 05:57:26;;;;;;;18.07;9.30;;;18.00;36.60;;;;;;5156474;28;20220;-50
2022/04/18 05:59:57;;;;;;;18.73;10.27;;;17.10;37.80;;;;;;5159107;28;20588;-47
2022/04/18 06:02:27;;;;;;;12.80;8.50;;;16.50;39.00;;;;;;5156098;28;20256;-47
2022/04/18 06:04:58;;;;;;;14.43;8.60;;;16.20;39.50;;;;;;5156862;28;20185;-47
2022/04/18 06:07:28;;;;;;;14.20;9.77;;;16.70;39.50;;;;;;5157659;28;20204;-47
2022/04/18 06:09:59;;;;;;;13.33;8.23;;;16.80;38.50;;;;;;5161100;28;20189;-46
2022/04/18 06:12:29;;;;;;;13.23;8.53;;;16.90;39.60;;;;;;5157903;28;20209;-47
2022/04/18 06:15:00;;;;;;;15.33;8.73;;;17.60;38.90;;;;;;5158693;28;20194;-48
2022/04/18 06:17:30;;;;;;;18.17;9.93;;;18.70;36.40;;;;;;5159581;28;20216;-46
2022/04/18 06:20:02;;;;;;;16.97;9.37;;;19.40;35.20;;;;;;5161867;28;20188;-48
2022/04/18 06:22:33;;;;;;;19.87;9.43;;;20.10;34.40;;;;;;5161348;28;20295;-45
2022/04/18 06:25:04;;;;;;;20.53;9.13;;;19.80;33.60;;;;;;5161640;28;20910;-46
2022/04/18 06:27:34;;;;;;;14.47;10.43;;;19.30;34.00;;;;;;5163260;28;20227;-47
2022/04/18 06:30:05;;;;;;;19.80;9.83;;;19.10;34.50;;;;;;5146217;28;20435;-47
2022/04/18 06:32:37;;;;;;;23.30;11.00;;;18.80;34.70;;;;;;5160160;28;20201;-46
2022/04/18 06:35:08;;;;;;;14.50;9.47;;;18.50;35.40;;;;;;5155725;28;20445;-46
2022/04/18 06:37:38;;;;;;;15.93;10.80;;;18.60;35.60;;;;;;5153238;28;20443;-48
2022/04/18 06:40:09;;;;;;;13.90;9.70;;;18.80;35.20;;;;;;5175239;28;20619;-47
2022/04/18 06:42:39;;;;;;;17.83;9.87;;;20.00;34.50;;;;;;5162240;28;20219;-46
2022/04/18 06:45:10;;;;;;;18.20;9.30;;;20.40;32.50;;;;;;5158320;28;20186;-46
2022/04/18 06:47:41;;;;;;;13.20;9.43;;;19.40;33.10;;;;;;5157197;28;20661;-46
2022/04/18 06:50:12;;;;;;;13.63;9.30;;;18.40;35.20;;;;;;5160521;28;20228;-47
2022/04/18 06:52:49;;;;;;;25.03;15.40;;;18.10;36.10;;;;;;5165541;28;20224;-47
2022/04/18 06:55:20;;;;;;;14.77;8.70;;;18.40;35.60;;;;;;5152422;28;20448;-47
2022/04/18 06:57:51;;;;;;;15.77;9.03;;;19.00;35.30;;;;;;5164051;28;20459;-47
2022/04/18 07:00:21;;;;;;;16.43;9.10;;;19.10;34.40;;;;;;5157545;28;20173;-47
2022/04/18 07:02:52;;;;;;;17.30;9.90;;;19.00;35.10;;;;;;5147826;28;20232;-46
2022/04/18 07:05:22;;;;;;;15.80;9.07;;;19.70;34.30;;;;;;5162372;28;20177;-49
2022/04/18 07:07:53;;;;;;;13.03;7.60;;;20.50;33.20;;;;;;5175578;28;20174;-50
2022/04/18 07:10:23;;;;;;;13.20;8.33;;;20.80;33.10;;;;;;5157582;28;20276;-48
2022/04/18 07:12:54;;;;;;;19.23;8.20;;;21.50;32.30;;;;;;5163318;28;20208;-47
2022/04/18 07:15:24;;;;;;;14.13;7.50;;;22.00;32.20;;;;;;5162044;28;20287;-47
2022/04/18 07:17:54;;;;;;;9.03;7.17;;;23.40;30.20;;;;;;5164372;28;20205;-46
2022/04/18 07:20:25;;;;;;;10.23;7.13;;;23.90;29.00;;;;;;5159497;28;20268;-47
2022/04/18 07:22:56;;;;;;;10.40;7.60;;;23.80;29.00;;;;;;5161953;28;20196;-48
2022/04/18 07:25:27;;;;;;;8.77;6.53;;;23.20;28.70;;;;;;5155989;28;20819;-48
2022/04/18 07:27:58;;;;;;;12.80;7.07;;;23.10;29.30;;;;;;5157033;28;20200;-48
2022/04/18 07:30:30;;;;;;;10.40;7.13;;;24.00;28.50;;;;;;5152018;28;20173;-48
2022/04/18 07:33:01;;;;;;;9.97;7.07;;;23.90;28.90;;;;;;5154940;28;20216;-47
2022/04/18 07:35:32;;;;;;;8.77;6.97;;;24.50;28.10;;;;;;5156221;28;21056;-48
2022/04/18 07:43:26;;;;;;;9.60;6.37;;;22.90;28.60;;;;;;5215018;28;20481;-49
2022/04/18 07:45:56;;;;;;;9.50;6.93;;;22.40;29.00;;;;;;5206379;28;20948;-52
2022/04/18 07:48:27;;;;;;;8.23;6.40;;;21.60;29.50;;;;;;5222553;28;20228;-50
2022/04/18 07:53:47;;;;;;;11.43;7.37;;;21.70;29.70;;;;;;5235670;28;20516;-49
2022/04/18 07:56:19;;;;;;;9.20;6.70;;;21.40;30.20;;;;;;5242161;28;20468;-49
2022/04/18 07:58:51;;;;;;;9.50;6.20;;;21.30;30.60;;;;;;5246985;28;20549;-49
2022/04/18 08:01:21;;;;;;;6.97;6.27;;;21.60;30.40;;;;;;5237474;28;20488;-49
2022/04/18 08:03:53;;;;;;;6.30;5.60;;;22.70;29.60;;;;;;5246299;28;20440;-50
2022/04/18 08:06:24;;;;;;;8.33;6.23;;;23.80;28.50;;;;;;5234995;28;20182;-49
2022/04/18 08:08:55;;;;;;;10.93;5.50;;;23.30;28.30;;;;;;5241535;28;21898;-49
2022/04/18 08:11:26;;;;;;;7.47;5.77;;;23.50;28.70;;;;;;5227548;28;20293;-48
2022/04/18 08:13:56;;;;;;;8.30;6.10;;;24.10;28.20;;;;;;5247913;28;20181;-51
2022/04/18 08:16:27;;;;;;;9.90;5.80;;;23.80;28.10;;;;;;5227041;28;20464;-48
2022/04/18 08:18:58;;;;;;;7.07;6.37;;;23.00;28.10;;;;;;5243200;28;20522;-50
2022/04/18 08:21:28;;;;;;;8.00;5.93;;;22.30;29.70;;;;;;5224789;28;20217;-50
2022/04/18 08:23:59;;;;;;;4.87;4.47;;;22.50;29.60;;;;;;5223660;28;20265;-48
2022/04/18 08:26:29;;;;;;;5.90;4.77;;;22.50;28.20;;;;;;5232907;28;20647;-47
2022/04/18 08:29:00;;;;;;;5.23;4.73;;;21.30;29.10;;;;;;5226289;28;20179;-50
2022/04/18 08:31:30;;;;;;;8.27;4.13;;;20.10;30.60;;;;;;5213964;28;20687;-47
2022/04/18 08:34:01;;;;;;;3.87;3.63;;;19.70;32.20;;;;;;5244068;28;20178;-50
2022/04/18 08:36:33;;;;;;;6.13;4.23;;;19.40;32.00;;;;;;5241126;28;20281;-46
2022/04/18 08:39:04;;;;;;;3.80;3.40;;;18.50;32.20;;;;;;5241840;28;20199;-49
2022/04/18 08:41:38;;;;;;;4.50;3.57;;;17.40;33.70;;;;;;5241570;28;20495;-49
2022/04/18 08:44:09;;;;;;;5.43;3.80;;;16.50;34.70;;;;;;5225745;28;20652;-48
2022/04/18 08:46:41;;;;;;;4.30;3.13;;;15.70;36.60;;;;;;5224263;28;20501;-50
2022/04/18 08:54:51;;;;;;;4.47;3.63;;;13.80;38.90;;;;;;5233082;28;20513;-48
2022/04/18 08:57:21;;;;;;;4.80;3.50;;;13.20;39.60;;;;;;5221075;28;20559;-48
2022/04/18 08:59:52;;;;;;;3.80;3.47;;;12.80;40.80;;;;;;5236111;28;20529;-49
2022/04/18 09:02:27;;;;;;;3.23;2.93;;;12.80;41.20;;;;;;5245510;28;20195;-48
2022/04/18 09:04:57;;;;;;;2.87;2.67;;;12.90;40.60;;;;;;5245715;28;20419;-49
2022/04/18 09:07:28;;;;;;;3.50;2.93;;;12.80;40.60;;;;;;5242672;28;20528;-49
2022/04/18 09:09:58;;;;;;;4.33;2.50;;;12.60;40.50;;;;;;5238548;28;20231;-48
2022/04/18 09:12:32;;;;;;;3.17;2.70;;;12.70;40.60;;;;;;5235059;28;20249;-49
2022/04/18 09:15:03;;;;;;;3.00;2.80;;;12.80;40.90;;;;;;5230192;28;20389;-48
2022/04/18 09:17:35;;;;;;;1.80;1.70;;;12.70;41.00;;;;;;5214739;28;20457;-48
2022/04/18 09:20:13;;;;;;;2.57;2.37;;;12.60;39.90;;;;;;5204387;28;20332;-48
2022/04/18 09:22:48;;;;;;;5.33;3.30;;;12.60;40.60;;;;;;5215306;28;20463;-47
2022/04/18 09:25:20;;;;;;;3.63;3.27;;;12.50;41.30;;;;;;5209087;28;20437;-49
2022/04/18 09:27:58;;;;;;;3.17;3.00;;;12.40;41.60;;;;;;5242257;28;20451;-47
2022/04/18 09:30:33;;;;;;;5.03;3.70;;;12.50;41.90;;;;;;5232508;28;20494;-48
2022/04/18 09:33:06;;;;;;;7.17;3.33;;;12.50;41.90;;;;;;5214587;28;20971;-48
2022/04/18 09:35:38;;;;;;;3.63;3.33;;;12.50;42.00;;;;;;5242758;28;20472;-48
2022/04/18 09:38:09;;;;;;;13.80;3.47;;;12.50;42.30;;;;;;5222740;28;20478;-48
2022/04/18 09:40:41;;;;;;;3.27;2.97;;;12.70;42.30;;;;;;5233466;28;20919;-48
2022/04/18 09:43:12;;;;;;;6.13;3.00;;;12.80;41.40;;;;;;5201011;28;20253;-48
2022/04/18 09:45:42;;;;;;;5.37;3.03;;;12.90;41.20;;;;;;5213298;28;20523;-50
2022/04/18 09:48:16;;;;;;;3.53;2.77;;;13.10;41.10;;;;;;5234712;28;20205;-47
2022/04/18 09:51:00;;;;;;;5.40;3.60;;;13.30;40.10;;;;;;5217257;28;20265;-49
2022/04/18 09:53:31;;;;;;;2.87;2.70;;;13.30;40.30;;;;;;5227830;28;20480;-49
2022/04/18 09:56:02;;;;;;;4.37;2.10;;;13.40;39.50;;;;;;5223548;28;20523;-48
2022/04/18 09:58:34;;;;;;;3.80;2.97;;;13.40;37.80;;;;;;5240222;28;20572;-48
2022/04/18 10:01:06;;;;;;;3.13;2.43;;;13.50;38.50;;;;;;5217293;28;20650;-49
2022/04/18 10:03:38;;;;;;;4.00;2.13;;;13.50;38.50;;;;;;5219628;28;20448;-50
2022/04/18 10:06:09;;;;;;;1.90;1.80;;;13.50;38.30;;;;;;5236156;28;20433;-47
2022/04/18 10:08:40;;;;;;;1.80;1.70;;;13.50;38.80;;;;;;5219421;28;20425;-48
2022/04/18 10:11:13;;;;;;;4.70;2.50;;;13.50;38.50;;;;;;5215554;28;20464;-48
2022/04/18 10:13:44;;;;;;;4.30;2.77;;;13.60;39.40;;;;;;5221072;28;20178;-48
2022/04/18 10:16:15;;;;;;;4.13;2.60;;;13.50;39.70;;;;;;5238791;28;21519;-50
2022/04/18 10:18:50;;;;;;;2.10;2.00;;;13.30;39.90;;;;;;5237954;28;20209;-50
2022/04/18 10:21:30;;;;;;;3.10;2.57;;;13.10;39.90;;;;;;5241488;28;20456;-48
2022/04/18 10:24:19;;;;;;;5.80;2.13;;;13.30;40.40;;;;;;5219219;28;23955;-52
2022/04/18 10:27:11;;;;;;;2.63;1.83;;;13.50;39.30;;;;;;5226354;28;20441;-49
2022/04/18 10:29:50;;;;;;;2.07;1.97;;;13.60;38.70;;;;;;5236713;28;20436;-47
2022/04/18 10:32:24;;;;;;;5.20;2.43;;;13.80;38.40;;;;;;5248829;28;20505;-48
2022/04/18 10:35:00;;;;;;;3.90;1.93;;;13.60;38.70;;;;;;5235778;28;20441;-48
2022/04/18 10:37:31;;;;;;;2.07;1.97;;;13.60;39.70;;;;;;5240493;28;20581;-48
2022/04/18 10:40:07;;;;;;;1.00;1.00;;;13.60;39.10;;;;;;5238921;28;20425;-47
2022/04/18 10:42:43;;;;;;;6.10;1.30;;;13.70;38.20;;;;;;5241145;28;20693;-49
2022/04/18 10:45:23;;;;;;;2.10;1.60;;;13.70;37.60;;;;;;5222803;28;20519;-48
2022/04/18 10:48:13;;;;;;;3.43;1.23;;;13.70;37.90;;;;;;5224270;28;20491;-47
2022/04/18 10:50:47;;;;;;;1.37;1.33;;;13.80;38.40;;;;;;5238213;28;20459;-48
2022/04/18 10:53:32;;;;;;;1.70;1.60;;;13.80;38.00;;;;;;5243348;28;20859;-50
2022/04/18 10:56:03;;;;;;;3.90;2.10;;;13.80;38.40;;;;;;5241090;28;20551;-48
2022/04/18 10:58:36;;;;;;;2.27;2.17;;;13.90;38.40;;;;;;5234856;28;20507;-47
2022/04/18 11:01:09;;;;;;;1.97;1.87;;;13.80;38.70;;;;;;5222505;28;20202;-48
2022/04/18 11:03:46;;;;;;;1.60;1.50;;;13.60;38.70;;;;;;5222310;28;20459;-50
2022/04/18 11:06:17;;;;;;;1.70;1.60;;;13.60;39.00;;;;;;5241867;28;20420;-49
2022/04/18 11:09:07;;;;;;;7.07;2.30;;;13.60;39.20;;;;;;5228380;28;20516;-48
2022/04/18 11:11:43;;;;;;;2.03;1.93;;;13.80;39.00;;;;;;5226878;28;20236;-49
2022/04/18 11:14:18;;;;;;;3.50;1.60;;;14.10;39.60;;;;;;5246101;28;20508;-49
2022/04/18 11:16:51;;;;;;;2.00;1.90;;;14.50;38.20;;;;;;5237655;28;20460;-50
2022/04/18 11:19:25;;;;;;;1.87;1.77;;;14.50;37.70;;;;;;5238873;28;20436;-49
2022/04/18 11:21:56;;;;;;;3.17;1.90;;;14.40;37.60;;;;;;5242811;28;20444;-47
2022/04/18 11:24:40;;;;;;;2.77;1.60;;;14.30;37.80;;;;;;5223985;28;20426;-48
2022/04/18 11:27:21;;;;;;;2.03;1.93;;;14.20;38.10;;;;;;5240870;28;20531;-49
2022/04/18 11:29:56;;;;;;;2.00;1.90;;;14.10;37.90;;;;;;5227020;28;20436;-48
2022/04/18 11:32:30;;;;;;;1.90;1.73;;;14.00;38.20;;;;;;5228733;28;21084;-49
2022/04/18 11:35:02;;;;;;;1.83;1.70;;;14.10;38.50;;;;;;5242523;28;20440;-49
2022/04/18 11:37:44;;;;;;;1.53;1.20;;;14.10;38.50;;;;;;5241046;28;20465;-49
2022/04/18 11:40:17;;;;;;;1.70;1.60;;;14.20;38.70;;;;;;5202941;28;20437;-51
2022/04/18 11:42:47;;;;;;;2.50;2.17;;;14.40;39.10;;;;;;5221981;28;20475;-49
2022/04/18 11:45:26;;;;;;;2.03;1.93;;;14.60;39.00;;;;;;5221725;28;20441;-51
2022/04/18 11:47:57;;;;;;;2.80;2.17;;;14.60;38.90;;;;;;5226343;28;20399;-48
2022/04/18 11:50:28;;;;;;;2.50;1.63;;;14.60;38.70;;;;;;5225626;28;20512;-47
2022/04/18 11:53:16;;;;;;;3.40;2.33;;;14.60;38.70;;;;;;5225860;28;20198;-49
2022/04/18 11:55:49;;;;;;;6.33;3.93;;;14.70;38.60;;;;;;5225104;28;20296;-47
2022/04/18 11:58:21;;;;;;;5.30;3.03;;;14.70;38.40;;;;;;5221772;28;20449;-49
2022/04/18 12:06:45;;;;;;;2.17;2.07;;;15.30;37.40;;;;;;5244081;28;20911;-48
2022/04/18 12:09:21;;;;;;;1.87;1.77;;;15.00;37.30;;;;;;5235584;28;20437;-48
2022/04/18 12:11:52;;;;;;;2.00;1.90;;;14.70;37.90;;;;;;5225754;28;20459;-49
2022/04/18 12:14:22;;;;;;;1.53;1.53;;;14.50;38.20;;;;;;5217628;28;20442;-48
2022/04/18 12:16:53;;;;;;;1.77;1.67;;;14.60;38.50;;;;;;5231612;28;20492;-49
2022/04/18 12:19:28;;;;;;;2.20;1.33;;;14.50;38.10;;;;;;5219297;28;20318;-49
2022/04/18 12:21:58;;;;;;;1.43;1.40;;;14.50;37.90;;;;;;5223910;28;20450;-47
2022/04/18 12:24:39;;;;;;;1.20;1.20;;;14.70;37.50;;;;;;5242769;28;20923;-47
2022/04/18 12:27:09;;;;;;;1.40;1.40;;;14.60;37.10;;;;;;5223965;28;20218;-46
2022/04/18 12:29:40;;;;;;;1.63;1.53;;;14.50;37.20;;;;;;5213582;28;20457;-47
2022/04/18 12:32:25;;;;;;;1.30;1.20;;;14.60;36.70;;;;;;5245271;28;20217;-46
2022/04/18 12:34:55;;;;;;;2.90;1.73;;;14.60;37.00;;;;;;5246828;28;20323;-50
2022/04/18 12:37:26;;;;;;;5.30;1.10;;;14.70;37.00;;;;;;5241276;28;20469;-49
2022/04/18 12:40:33;;;;;;;2.63;1.70;;;14.90;36.80;;;;;;5239906;28;20213;-48
2022/04/18 12:43:08;;;;;;;2.40;1.00;;;15.30;36.30;;;;;;5189166;28;20225;-47
2022/04/18 12:45:45;;;;;;;2.93;1.20;;;15.20;35.40;;;;;;5226172;28;20877;-45
2022/04/18 12:48:24;;;;;;;2.07;1.20;;;15.20;36.00;;;;;;5239316;28;20482;-47
2022/04/18 12:50:56;;;;;;;1.57;1.30;;;15.00;35.70;;;;;;5236628;28;20417;-47
2022/04/18 12:53:50;;;;;;;1.80;1.50;;;15.00;35.90;;;;;;5222872;28;20440;-47
2022/04/18 12:56:24;;;;;;;2.50;1.57;;;15.10;35.50;;;;;;5224100;28;20858;-48
2022/04/18 12:58:54;;;;;;;1.10;1.10;;;14.90;35.80;;;;;;5238676;28;20445;-50
2022/04/18 13:01:30;;;;;;;1.50;1.40;;;14.80;35.70;;;;;;5242167;28;20456;-47
2022/04/18 13:04:05;;;;;;;0.70;0.70;;;14.80;35.60;;;;;;5234864;28;20183;-46
2022/04/18 13:06:36;;;;;;;0.70;0.70;;;14.90;33.70;;;;;;5226643;28;20437;-48
2022/04/18 13:09:08;;;;;;;1.23;0.97;;;14.90;33.60;;;;;;5244985;28;20992;-48
2022/04/18 13:11:45;;;;;;;1.10;1.10;;;15.00;33.20;;;;;;5237052;28;20289;-49
2022/04/18 13:14:16;;;;;;;0.80;0.80;;;15.10;33.40;;;;;;5244352;28;20844;-49
2022/04/18 13:16:46;;;;;;;0.73;0.73;;;15.30;33.70;;;;;;5238637;28;20552;-49
2022/04/18 13:19:17;;;;;;;1.20;0.47;;;15.40;33.50;;;;;;5241937;28;20601;-47
2022/04/18 13:21:47;;;;;;;2.60;1.00;;;15.50;33.50;;;;;;5225241;28;20619;-49
2022/04/18 13:24:18;;;;;;;0.80;0.80;;;15.60;32.90;;;;;;5226686;28;20178;-48
2022/04/18 13:26:49;;;;;;;1.10;1.10;;;15.50;33.10;;;;;;5234644;28;20613;-49
2022/04/18 13:29:20;;;;;;;1.00;1.00;;;15.40;33.20;;;;;;5244467;28;20182;-47
2022/04/18 13:31:50;;;;;;;1.17;0.97;;;15.40;33.60;;;;;;5225918;28;20603;-49
2022/04/18 13:34:21;;;;;;;0.80;0.80;;;15.40;33.40;;;;;;5253017;28;20178;-48
2022/04/18 13:36:51;;;;;;;2.10;0.60;;;15.50;33.40;;;;;;5225282;28;20229;-47
2022/04/18 13:39:22;;;;;;;1.20;1.10;;;15.50;33.10;;;;;;5225447;28;20580;-48
2022/04/18 13:41:53;;;;;;;1.80;1.00;;;15.40;33.70;;;;;;5263547;22;20312;-43
2022/04/18 13:44:23;;;;;;;1.63;0.93;;;15.30;33.60;;;;;;5239432;28;20569;-43